<?xml version="1.0" encoding="UTF-8" standalone="no" ?>
<gpx xmlns="http://www.topografix.com/GPX/1/1" xmlns:xsi="http://www.w3.org/2001/XMLSchema-instance" xsi:schemaLocation="http://www.topografix.com/GPX/1/1 http://www.topografix.com/GPX/1/1/gpx.xsd" version="1.1" creator="VisuGPX - https://www.visugpx.com">
  <metadata>
    <name>Les Vieilles Fumades - Auzon</name>
    <desc><![CDATA[Balade dans la plaine des fumades, paysages bucoliques au rendez-vous.
]]></desc>
  </metadata>
  <trk>
    <name><![CDATA[2013-02-26-01 Les Fumades Auzon]]></name>
    <trkseg>
      <trkpt lat="44.18593" lon="4.22921">
        <ele>131</ele>
        <time>2013-02-26T13:05:07Z</time>
      </trkpt>
      <trkpt lat="44.18577" lon="4.22932">
        <ele>130</ele>
        <time>2013-02-26T13:07:31Z</time>
      </trkpt>
      <trkpt lat="44.18571" lon="4.22956">
        <ele>135</ele>
        <time>2013-02-26T13:07:59Z</time>
      </trkpt>
      <trkpt lat="44.18573" lon="4.2298">
        <ele>138</ele>
        <time>2013-02-26T13:08:24Z</time>
      </trkpt>
      <trkpt lat="44.18589" lon="4.2299">
        <ele>133</ele>
        <time>2013-02-26T13:08:45Z</time>
      </trkpt>
      <trkpt lat="44.18604" lon="4.23003">
        <ele>132</ele>
        <time>2013-02-26T13:09:02Z</time>
      </trkpt>
      <trkpt lat="44.18615" lon="4.23022">
        <ele>129</ele>
        <time>2013-02-26T13:09:21Z</time>
      </trkpt>
      <trkpt lat="44.18628" lon="4.23038">
        <ele>138</ele>
        <time>2013-02-26T13:09:36Z</time>
      </trkpt>
      <trkpt lat="44.18636" lon="4.23058">
        <ele>136</ele>
        <time>2013-02-26T13:09:54Z</time>
      </trkpt>
      <trkpt lat="44.18649" lon="4.23074">
        <ele>140</ele>
        <time>2013-02-26T13:10:07Z</time>
      </trkpt>
      <trkpt lat="44.18661" lon="4.23093">
        <ele>141</ele>
        <time>2013-02-26T13:10:22Z</time>
      </trkpt>
      <trkpt lat="44.18673" lon="4.2311">
        <ele>138</ele>
        <time>2013-02-26T13:10:38Z</time>
      </trkpt>
      <trkpt lat="44.18679" lon="4.23132">
        <ele>136</ele>
        <time>2013-02-26T13:10:53Z</time>
      </trkpt>
      <trkpt lat="44.18694" lon="4.23146">
        <ele>132</ele>
        <time>2013-02-26T13:11:09Z</time>
      </trkpt>
      <trkpt lat="44.1871" lon="4.23156">
        <ele>128</ele>
        <time>2013-02-26T13:11:27Z</time>
      </trkpt>
      <trkpt lat="44.18727" lon="4.23163">
        <ele>124</ele>
        <time>2013-02-26T13:11:43Z</time>
      </trkpt>
      <trkpt lat="44.18743" lon="4.23168">
        <ele>129</ele>
        <time>2013-02-26T13:11:57Z</time>
      </trkpt>
      <trkpt lat="44.1876" lon="4.23175">
        <ele>125</ele>
        <time>2013-02-26T13:12:16Z</time>
      </trkpt>
      <trkpt lat="44.18777" lon="4.23182">
        <ele>123</ele>
        <time>2013-02-26T13:12:32Z</time>
      </trkpt>
      <trkpt lat="44.18791" lon="4.23195">
        <ele>122</ele>
        <time>2013-02-26T13:12:47Z</time>
      </trkpt>
      <trkpt lat="44.18806" lon="4.23207">
        <ele>121</ele>
        <time>2013-02-26T13:13:04Z</time>
      </trkpt>
      <trkpt lat="44.18821" lon="4.23214">
        <ele>133</ele>
        <time>2013-02-26T13:13:13Z</time>
      </trkpt>
      <trkpt lat="44.18827" lon="4.23237">
        <ele>140</ele>
        <time>2013-02-26T13:13:33Z</time>
      </trkpt>
      <trkpt lat="44.18819" lon="4.23256">
        <ele>132</ele>
        <time>2013-02-26T13:13:51Z</time>
      </trkpt>
      <trkpt lat="44.18809" lon="4.23274">
        <ele>127</ele>
        <time>2013-02-26T13:14:04Z</time>
      </trkpt>
      <trkpt lat="44.18803" lon="4.23297">
        <ele>130</ele>
        <time>2013-02-26T13:14:16Z</time>
      </trkpt>
      <trkpt lat="44.18811" lon="4.23318">
        <ele>132</ele>
        <time>2013-02-26T13:14:32Z</time>
      </trkpt>
      <trkpt lat="44.18822" lon="4.23338">
        <ele>129</ele>
        <time>2013-02-26T13:14:48Z</time>
      </trkpt>
      <trkpt lat="44.18831" lon="4.23359">
        <ele>128</ele>
        <time>2013-02-26T13:15:03Z</time>
      </trkpt>
      <trkpt lat="44.18841" lon="4.23378">
        <ele>127</ele>
        <time>2013-02-26T13:15:18Z</time>
      </trkpt>
      <trkpt lat="44.18853" lon="4.23396">
        <ele>127</ele>
        <time>2013-02-26T13:15:33Z</time>
      </trkpt>
      <trkpt lat="44.18863" lon="4.23415">
        <ele>128</ele>
        <time>2013-02-26T13:15:48Z</time>
      </trkpt>
      <trkpt lat="44.18874" lon="4.23434">
        <ele>126</ele>
        <time>2013-02-26T13:16:04Z</time>
      </trkpt>
      <trkpt lat="44.18885" lon="4.23452">
        <ele>125</ele>
        <time>2013-02-26T13:16:19Z</time>
      </trkpt>
      <trkpt lat="44.18897" lon="4.23469">
        <ele>122</ele>
        <time>2013-02-26T13:16:35Z</time>
      </trkpt>
      <trkpt lat="44.1891" lon="4.23486">
        <ele>125</ele>
        <time>2013-02-26T13:16:49Z</time>
      </trkpt>
      <trkpt lat="44.18922" lon="4.23503">
        <ele>128</ele>
        <time>2013-02-26T13:17:02Z</time>
      </trkpt>
      <trkpt lat="44.18931" lon="4.23522">
        <ele>130</ele>
        <time>2013-02-26T13:17:16Z</time>
      </trkpt>
      <trkpt lat="44.18941" lon="4.23543">
        <ele>133</ele>
        <time>2013-02-26T13:17:30Z</time>
      </trkpt>
      <trkpt lat="44.18953" lon="4.23562">
        <ele>132</ele>
        <time>2013-02-26T13:17:46Z</time>
      </trkpt>
      <trkpt lat="44.18967" lon="4.23577">
        <ele>133</ele>
        <time>2013-02-26T13:18:00Z</time>
      </trkpt>
      <trkpt lat="44.18977" lon="4.23597">
        <ele>130</ele>
        <time>2013-02-26T13:18:17Z</time>
      </trkpt>
      <trkpt lat="44.18991" lon="4.23612">
        <ele>128</ele>
        <time>2013-02-26T13:18:35Z</time>
      </trkpt>
      <trkpt lat="44.19003" lon="4.23629">
        <ele>124</ele>
        <time>2013-02-26T13:18:50Z</time>
      </trkpt>
      <trkpt lat="44.19017" lon="4.23644">
        <ele>124</ele>
        <time>2013-02-26T13:19:04Z</time>
      </trkpt>
      <trkpt lat="44.19028" lon="4.23662">
        <ele>126</ele>
        <time>2013-02-26T13:19:18Z</time>
      </trkpt>
      <trkpt lat="44.19041" lon="4.23678">
        <ele>128</ele>
        <time>2013-02-26T13:19:32Z</time>
      </trkpt>
      <trkpt lat="44.19052" lon="4.23697">
        <ele>130</ele>
        <time>2013-02-26T13:19:47Z</time>
      </trkpt>
      <trkpt lat="44.1906" lon="4.23718">
        <ele>126</ele>
        <time>2013-02-26T13:20:03Z</time>
      </trkpt>
      <trkpt lat="44.19072" lon="4.23736">
        <ele>126</ele>
        <time>2013-02-26T13:20:19Z</time>
      </trkpt>
      <trkpt lat="44.19084" lon="4.23752">
        <ele>130</ele>
        <time>2013-02-26T13:20:31Z</time>
      </trkpt>
      <trkpt lat="44.19089" lon="4.23776">
        <ele>131</ele>
        <time>2013-02-26T13:20:47Z</time>
      </trkpt>
      <trkpt lat="44.19089" lon="4.238">
        <ele>129</ele>
        <time>2013-02-26T13:21:14Z</time>
      </trkpt>
      <trkpt lat="44.19081" lon="4.23821">
        <ele>126</ele>
        <time>2013-02-26T13:21:31Z</time>
      </trkpt>
      <trkpt lat="44.1907" lon="4.23841">
        <ele>126</ele>
        <time>2013-02-26T13:21:47Z</time>
      </trkpt>
      <trkpt lat="44.1906" lon="4.23861">
        <ele>127</ele>
        <time>2013-02-26T13:22:02Z</time>
      </trkpt>
      <trkpt lat="44.19051" lon="4.23881">
        <ele>127</ele>
        <time>2013-02-26T13:22:16Z</time>
      </trkpt>
      <trkpt lat="44.19042" lon="4.23902">
        <ele>127</ele>
        <time>2013-02-26T13:22:31Z</time>
      </trkpt>
      <trkpt lat="44.19032" lon="4.23923">
        <ele>127</ele>
        <time>2013-02-26T13:22:46Z</time>
      </trkpt>
      <trkpt lat="44.19023" lon="4.23944">
        <ele>128</ele>
        <time>2013-02-26T13:23:01Z</time>
      </trkpt>
      <trkpt lat="44.19014" lon="4.23964">
        <ele>128</ele>
        <time>2013-02-26T13:23:16Z</time>
      </trkpt>
      <trkpt lat="44.19005" lon="4.23985">
        <ele>128</ele>
        <time>2013-02-26T13:23:32Z</time>
      </trkpt>
      <trkpt lat="44.18996" lon="4.24006">
        <ele>128</ele>
        <time>2013-02-26T13:23:46Z</time>
      </trkpt>
      <trkpt lat="44.18986" lon="4.24027">
        <ele>128</ele>
        <time>2013-02-26T13:23:57Z</time>
      </trkpt>
      <trkpt lat="44.18978" lon="4.24048">
        <ele>126</ele>
        <time>2013-02-26T13:24:13Z</time>
      </trkpt>
      <trkpt lat="44.18971" lon="4.2407">
        <ele>127</ele>
        <time>2013-02-26T13:24:30Z</time>
      </trkpt>
      <trkpt lat="44.18973" lon="4.24094">
        <ele>128</ele>
        <time>2013-02-26T13:24:45Z</time>
      </trkpt>
      <trkpt lat="44.18988" lon="4.24107">
        <ele>128</ele>
        <time>2013-02-26T13:25:01Z</time>
      </trkpt>
      <trkpt lat="44.19002" lon="4.2412">
        <ele>129</ele>
        <time>2013-02-26T13:25:16Z</time>
      </trkpt>
      <trkpt lat="44.19012" lon="4.24139">
        <ele>131</ele>
        <time>2013-02-26T13:25:31Z</time>
      </trkpt>
      <trkpt lat="44.19013" lon="4.24163">
        <ele>133</ele>
        <time>2013-02-26T13:25:46Z</time>
      </trkpt>
      <trkpt lat="44.19011" lon="4.24187">
        <ele>129</ele>
        <time>2013-02-26T13:26:02Z</time>
      </trkpt>
      <trkpt lat="44.1901" lon="4.24211">
        <ele>130</ele>
        <time>2013-02-26T13:26:16Z</time>
      </trkpt>
      <trkpt lat="44.19011" lon="4.24236">
        <ele>131</ele>
        <time>2013-02-26T13:26:35Z</time>
      </trkpt>
      <trkpt lat="44.19002" lon="4.24257">
        <ele>128</ele>
        <time>2013-02-26T13:26:49Z</time>
      </trkpt>
      <trkpt lat="44.18997" lon="4.2428">
        <ele>127</ele>
        <time>2013-02-26T13:27:01Z</time>
      </trkpt>
      <trkpt lat="44.19014" lon="4.24286">
        <ele>126</ele>
        <time>2013-02-26T13:27:43Z</time>
      </trkpt>
      <trkpt lat="44.19016" lon="4.24309">
        <ele>125</ele>
        <time>2013-02-26T13:28:35Z</time>
      </trkpt>
      <trkpt lat="44.19028" lon="4.24328">
        <ele>128</ele>
        <time>2013-02-26T13:28:53Z</time>
      </trkpt>
      <trkpt lat="44.19039" lon="4.24347">
        <ele>131</ele>
        <time>2013-02-26T13:29:10Z</time>
      </trkpt>
      <trkpt lat="44.19051" lon="4.24365">
        <ele>132</ele>
        <time>2013-02-26T13:29:27Z</time>
      </trkpt>
      <trkpt lat="44.19063" lon="4.24381">
        <ele>127</ele>
        <time>2013-02-26T13:29:47Z</time>
      </trkpt>
      <trkpt lat="44.19075" lon="4.244">
        <ele>129</ele>
        <time>2013-02-26T13:30:05Z</time>
      </trkpt>
      <trkpt lat="44.19088" lon="4.24416">
        <ele>131</ele>
        <time>2013-02-26T13:30:21Z</time>
      </trkpt>
      <trkpt lat="44.19101" lon="4.2443">
        <ele>136</ele>
        <time>2013-02-26T13:30:35Z</time>
      </trkpt>
      <trkpt lat="44.19116" lon="4.24444">
        <ele>138</ele>
        <time>2013-02-26T13:30:52Z</time>
      </trkpt>
      <trkpt lat="44.19133" lon="4.24451">
        <ele>142</ele>
        <time>2013-02-26T13:31:07Z</time>
      </trkpt>
      <trkpt lat="44.1915" lon="4.24454">
        <ele>144</ele>
        <time>2013-02-26T13:31:23Z</time>
      </trkpt>
      <trkpt lat="44.19168" lon="4.24454">
        <ele>143</ele>
        <time>2013-02-26T13:31:39Z</time>
      </trkpt>
      <trkpt lat="44.19184" lon="4.24464">
        <ele>144</ele>
        <time>2013-02-26T13:31:58Z</time>
      </trkpt>
      <trkpt lat="44.19197" lon="4.24481">
        <ele>146</ele>
        <time>2013-02-26T13:32:18Z</time>
      </trkpt>
      <trkpt lat="44.19211" lon="4.24495">
        <ele>146</ele>
        <time>2013-02-26T13:32:36Z</time>
      </trkpt>
      <trkpt lat="44.19226" lon="4.24507">
        <ele>149</ele>
        <time>2013-02-26T13:32:52Z</time>
      </trkpt>
      <trkpt lat="44.19239" lon="4.24523">
        <ele>148</ele>
        <time>2013-02-26T13:33:11Z</time>
      </trkpt>
      <trkpt lat="44.19253" lon="4.24538">
        <ele>154</ele>
        <time>2013-02-26T13:33:27Z</time>
      </trkpt>
      <trkpt lat="44.19269" lon="4.24549">
        <ele>153</ele>
        <time>2013-02-26T13:33:49Z</time>
      </trkpt>
      <trkpt lat="44.19286" lon="4.24554">
        <ele>153</ele>
        <time>2013-02-26T13:34:10Z</time>
      </trkpt>
      <trkpt lat="44.19303" lon="4.24557">
        <ele>150</ele>
        <time>2013-02-26T13:34:32Z</time>
      </trkpt>
      <trkpt lat="44.19321" lon="4.2456">
        <ele>149</ele>
        <time>2013-02-26T13:34:49Z</time>
      </trkpt>
      <trkpt lat="44.19337" lon="4.24566">
        <ele>151</ele>
        <time>2013-02-26T13:35:05Z</time>
      </trkpt>
      <trkpt lat="44.19354" lon="4.24572">
        <ele>151</ele>
        <time>2013-02-26T13:35:22Z</time>
      </trkpt>
      <trkpt lat="44.19369" lon="4.24584">
        <ele>151</ele>
        <time>2013-02-26T13:35:49Z</time>
      </trkpt>
      <trkpt lat="44.19379" lon="4.24604">
        <ele>143</ele>
        <time>2013-02-26T13:36:12Z</time>
      </trkpt>
      <trkpt lat="44.19397" lon="4.24601">
        <ele>146</ele>
        <time>2013-02-26T13:36:39Z</time>
      </trkpt>
      <trkpt lat="44.19411" lon="4.24587">
        <ele>147</ele>
        <time>2013-02-26T13:36:52Z</time>
      </trkpt>
      <trkpt lat="44.19427" lon="4.2458">
        <ele>149</ele>
        <time>2013-02-26T13:37:13Z</time>
      </trkpt>
      <trkpt lat="44.19445" lon="4.24576">
        <ele>149</ele>
        <time>2013-02-26T13:37:35Z</time>
      </trkpt>
      <trkpt lat="44.19462" lon="4.24568">
        <ele>146</ele>
        <time>2013-02-26T13:38:11Z</time>
      </trkpt>
      <trkpt lat="44.19478" lon="4.24563">
        <ele>143</ele>
        <time>2013-02-26T13:38:31Z</time>
      </trkpt>
      <trkpt lat="44.19493" lon="4.24548">
        <ele>136</ele>
        <time>2013-02-26T13:38:51Z</time>
      </trkpt>
      <trkpt lat="44.19506" lon="4.24531">
        <ele>134</ele>
        <time>2013-02-26T13:39:08Z</time>
      </trkpt>
      <trkpt lat="44.19522" lon="4.24523">
        <ele>135</ele>
        <time>2013-02-26T13:39:29Z</time>
      </trkpt>
      <trkpt lat="44.1954" lon="4.24522">
        <ele>136</ele>
        <time>2013-02-26T13:39:45Z</time>
      </trkpt>
      <trkpt lat="44.19557" lon="4.24522">
        <ele>136</ele>
        <time>2013-02-26T13:40:02Z</time>
      </trkpt>
      <trkpt lat="44.19574" lon="4.24522">
        <ele>136</ele>
        <time>2013-02-26T13:40:16Z</time>
      </trkpt>
      <trkpt lat="44.19591" lon="4.24525">
        <ele>136</ele>
        <time>2013-02-26T13:40:31Z</time>
      </trkpt>
      <trkpt lat="44.19609" lon="4.24526">
        <ele>132</ele>
        <time>2013-02-26T13:40:47Z</time>
      </trkpt>
      <trkpt lat="44.19626" lon="4.24526">
        <ele>129</ele>
        <time>2013-02-26T13:41:02Z</time>
      </trkpt>
      <trkpt lat="44.19643" lon="4.2452">
        <ele>124</ele>
        <time>2013-02-26T13:41:21Z</time>
      </trkpt>
      <trkpt lat="44.1966" lon="4.24511">
        <ele>124</ele>
        <time>2013-02-26T13:41:37Z</time>
      </trkpt>
      <trkpt lat="44.19677" lon="4.24505">
        <ele>126</ele>
        <time>2013-02-26T13:41:52Z</time>
      </trkpt>
      <trkpt lat="44.19693" lon="4.24499">
        <ele>126</ele>
        <time>2013-02-26T13:42:08Z</time>
      </trkpt>
      <trkpt lat="44.1971" lon="4.24492">
        <ele>125</ele>
        <time>2013-02-26T13:42:24Z</time>
      </trkpt>
      <trkpt lat="44.19727" lon="4.24491">
        <ele>124</ele>
        <time>2013-02-26T13:42:42Z</time>
      </trkpt>
      <trkpt lat="44.19745" lon="4.24491">
        <ele>122</ele>
        <time>2013-02-26T13:43:02Z</time>
      </trkpt>
      <trkpt lat="44.19763" lon="4.24493">
        <ele>124</ele>
        <time>2013-02-26T13:43:17Z</time>
      </trkpt>
      <trkpt lat="44.1978" lon="4.24493">
        <ele>126</ele>
        <time>2013-02-26T13:43:33Z</time>
      </trkpt>
      <trkpt lat="44.19797" lon="4.24493">
        <ele>127</ele>
        <time>2013-02-26T13:43:49Z</time>
      </trkpt>
      <trkpt lat="44.19813" lon="4.24485">
        <ele>130</ele>
        <time>2013-02-26T13:44:05Z</time>
      </trkpt>
      <trkpt lat="44.19822" lon="4.24464">
        <ele>139</ele>
        <time>2013-02-26T13:44:18Z</time>
      </trkpt>
      <trkpt lat="44.19832" lon="4.24444">
        <ele>139</ele>
        <time>2013-02-26T13:45:05Z</time>
      </trkpt>
      <trkpt lat="44.19819" lon="4.24427">
        <ele>144</ele>
        <time>2013-02-26T13:45:28Z</time>
      </trkpt>
      <trkpt lat="44.19808" lon="4.24446">
        <ele>131</ele>
        <time>2013-02-26T13:46:08Z</time>
      </trkpt>
      <trkpt lat="44.19825" lon="4.24446">
        <ele>122</ele>
        <time>2013-02-26T13:48:14Z</time>
      </trkpt>
      <trkpt lat="44.19811" lon="4.24432">
        <ele>131</ele>
        <time>2013-02-26T13:50:07Z</time>
      </trkpt>
      <trkpt lat="44.19815" lon="4.24408">
        <ele>128</ele>
        <time>2013-02-26T13:50:26Z</time>
      </trkpt>
      <trkpt lat="44.19825" lon="4.24388">
        <ele>127</ele>
        <time>2013-02-26T13:50:47Z</time>
      </trkpt>
      <trkpt lat="44.19832" lon="4.24366">
        <ele>129</ele>
        <time>2013-02-26T13:51:03Z</time>
      </trkpt>
      <trkpt lat="44.19837" lon="4.24343">
        <ele>129</ele>
        <time>2013-02-26T13:51:22Z</time>
      </trkpt>
      <trkpt lat="44.19848" lon="4.24324">
        <ele>125</ele>
        <time>2013-02-26T13:51:43Z</time>
      </trkpt>
      <trkpt lat="44.19861" lon="4.24308">
        <ele>111</ele>
        <time>2013-02-26T13:52:04Z</time>
      </trkpt>
      <trkpt lat="44.19873" lon="4.24291">
        <ele>98</ele>
        <time>2013-02-26T13:52:23Z</time>
      </trkpt>
      <trkpt lat="44.19886" lon="4.24275">
        <ele>90</ele>
        <time>2013-02-26T13:52:41Z</time>
      </trkpt>
      <trkpt lat="44.19897" lon="4.24256">
        <ele>86</ele>
        <time>2013-02-26T13:52:58Z</time>
      </trkpt>
      <trkpt lat="44.19909" lon="4.24238">
        <ele>84</ele>
        <time>2013-02-26T13:53:15Z</time>
      </trkpt>
      <trkpt lat="44.19921" lon="4.24221">
        <ele>84</ele>
        <time>2013-02-26T13:53:31Z</time>
      </trkpt>
      <trkpt lat="44.19927" lon="4.24199">
        <ele>84</ele>
        <time>2013-02-26T13:53:49Z</time>
      </trkpt>
      <trkpt lat="44.19924" lon="4.24174">
        <ele>83</ele>
        <time>2013-02-26T13:54:07Z</time>
      </trkpt>
      <trkpt lat="44.19922" lon="4.24151">
        <ele>83</ele>
        <time>2013-02-26T13:54:23Z</time>
      </trkpt>
      <trkpt lat="44.19916" lon="4.24129">
        <ele>89</ele>
        <time>2013-02-26T13:54:36Z</time>
      </trkpt>
      <trkpt lat="44.19909" lon="4.24107">
        <ele>94</ele>
        <time>2013-02-26T13:54:46Z</time>
      </trkpt>
      <trkpt lat="44.19906" lon="4.24083">
        <ele>102</ele>
        <time>2013-02-26T13:54:58Z</time>
      </trkpt>
      <trkpt lat="44.19903" lon="4.24058">
        <ele>104</ele>
        <time>2013-02-26T13:55:14Z</time>
      </trkpt>
      <trkpt lat="44.19901" lon="4.24035">
        <ele>106</ele>
        <time>2013-02-26T13:55:28Z</time>
      </trkpt>
      <trkpt lat="44.19896" lon="4.24012">
        <ele>112</ele>
        <time>2013-02-26T13:55:42Z</time>
      </trkpt>
      <trkpt lat="44.1989" lon="4.23989">
        <ele>119</ele>
        <time>2013-02-26T13:55:55Z</time>
      </trkpt>
      <trkpt lat="44.19882" lon="4.23967">
        <ele>123</ele>
        <time>2013-02-26T13:56:09Z</time>
      </trkpt>
      <trkpt lat="44.19874" lon="4.23945">
        <ele>125</ele>
        <time>2013-02-26T13:56:26Z</time>
      </trkpt>
      <trkpt lat="44.19865" lon="4.23924">
        <ele>126</ele>
        <time>2013-02-26T13:56:41Z</time>
      </trkpt>
      <trkpt lat="44.19857" lon="4.23903">
        <ele>123</ele>
        <time>2013-02-26T13:56:57Z</time>
      </trkpt>
      <trkpt lat="44.19852" lon="4.2388">
        <ele>125</ele>
        <time>2013-02-26T13:57:11Z</time>
      </trkpt>
      <trkpt lat="44.19853" lon="4.23856">
        <ele>122</ele>
        <time>2013-02-26T13:57:29Z</time>
      </trkpt>
      <trkpt lat="44.19855" lon="4.23832">
        <ele>116</ele>
        <time>2013-02-26T13:57:45Z</time>
      </trkpt>
      <trkpt lat="44.19851" lon="4.23808">
        <ele>115</ele>
        <time>2013-02-26T13:58:02Z</time>
      </trkpt>
      <trkpt lat="44.19847" lon="4.23784">
        <ele>112</ele>
        <time>2013-02-26T13:58:20Z</time>
      </trkpt>
      <trkpt lat="44.19842" lon="4.2376">
        <ele>121</ele>
        <time>2013-02-26T13:58:32Z</time>
      </trkpt>
      <trkpt lat="44.19843" lon="4.23736">
        <ele>121</ele>
        <time>2013-02-26T13:58:49Z</time>
      </trkpt>
      <trkpt lat="44.19846" lon="4.23712">
        <ele>109</ele>
        <time>2013-02-26T13:59:09Z</time>
      </trkpt>
      <trkpt lat="44.19846" lon="4.23689">
        <ele>108</ele>
        <time>2013-02-26T13:59:25Z</time>
      </trkpt>
      <trkpt lat="44.19843" lon="4.23666">
        <ele>115</ele>
        <time>2013-02-26T13:59:36Z</time>
      </trkpt>
      <trkpt lat="44.19841" lon="4.23642">
        <ele>124</ele>
        <time>2013-02-26T13:59:48Z</time>
      </trkpt>
      <trkpt lat="44.19842" lon="4.23618">
        <ele>127</ele>
        <time>2013-02-26T14:00:04Z</time>
      </trkpt>
      <trkpt lat="44.19843" lon="4.23593">
        <ele>133</ele>
        <time>2013-02-26T14:00:20Z</time>
      </trkpt>
      <trkpt lat="44.19846" lon="4.23569">
        <ele>133</ele>
        <time>2013-02-26T14:00:36Z</time>
      </trkpt>
      <trkpt lat="44.19854" lon="4.23547">
        <ele>135</ele>
        <time>2013-02-26T14:00:53Z</time>
      </trkpt>
      <trkpt lat="44.19863" lon="4.23526">
        <ele>137</ele>
        <time>2013-02-26T14:01:09Z</time>
      </trkpt>
      <trkpt lat="44.19863" lon="4.23502">
        <ele>142</ele>
        <time>2013-02-26T14:01:23Z</time>
      </trkpt>
      <trkpt lat="44.19874" lon="4.23481">
        <ele>139</ele>
        <time>2013-02-26T14:01:41Z</time>
      </trkpt>
      <trkpt lat="44.19877" lon="4.23457">
        <ele>138</ele>
        <time>2013-02-26T14:01:57Z</time>
      </trkpt>
      <trkpt lat="44.19885" lon="4.23436">
        <ele>131</ele>
        <time>2013-02-26T14:02:14Z</time>
      </trkpt>
      <trkpt lat="44.19892" lon="4.23413">
        <ele>129</ele>
        <time>2013-02-26T14:02:29Z</time>
      </trkpt>
      <trkpt lat="44.199" lon="4.23391">
        <ele>126</ele>
        <time>2013-02-26T14:02:45Z</time>
      </trkpt>
      <trkpt lat="44.199" lon="4.23367">
        <ele>134</ele>
        <time>2013-02-26T14:02:59Z</time>
      </trkpt>
      <trkpt lat="44.19907" lon="4.23346">
        <ele>134</ele>
        <time>2013-02-26T14:03:16Z</time>
      </trkpt>
      <trkpt lat="44.19915" lon="4.23325">
        <ele>142</ele>
        <time>2013-02-26T14:03:30Z</time>
      </trkpt>
      <trkpt lat="44.1992" lon="4.23302">
        <ele>141</ele>
        <time>2013-02-26T14:03:47Z</time>
      </trkpt>
      <trkpt lat="44.19905" lon="4.23294">
        <ele>137</ele>
        <time>2013-02-26T14:13:32Z</time>
      </trkpt>
      <trkpt lat="44.19887" lon="4.23291">
        <ele>132</ele>
        <time>2013-02-26T14:13:50Z</time>
      </trkpt>
      <trkpt lat="44.1987" lon="4.23288">
        <ele>132</ele>
        <time>2013-02-26T14:14:08Z</time>
      </trkpt>
      <trkpt lat="44.19853" lon="4.23285">
        <ele>132</ele>
        <time>2013-02-26T14:14:23Z</time>
      </trkpt>
      <trkpt lat="44.19835" lon="4.23284">
        <ele>131</ele>
        <time>2013-02-26T14:14:39Z</time>
      </trkpt>
      <trkpt lat="44.19818" lon="4.23282">
        <ele>129</ele>
        <time>2013-02-26T14:14:55Z</time>
      </trkpt>
      <trkpt lat="44.19801" lon="4.23277">
        <ele>130</ele>
        <time>2013-02-26T14:15:11Z</time>
      </trkpt>
      <trkpt lat="44.19783" lon="4.23275">
        <ele>132</ele>
        <time>2013-02-26T14:15:29Z</time>
      </trkpt>
      <trkpt lat="44.19766" lon="4.23277">
        <ele>133</ele>
        <time>2013-02-26T14:15:48Z</time>
      </trkpt>
      <trkpt lat="44.19748" lon="4.2328">
        <ele>130</ele>
        <time>2013-02-26T14:16:07Z</time>
      </trkpt>
      <trkpt lat="44.19731" lon="4.23278">
        <ele>131</ele>
        <time>2013-02-26T14:16:20Z</time>
      </trkpt>
      <trkpt lat="44.19714" lon="4.23273">
        <ele>132</ele>
        <time>2013-02-26T14:16:38Z</time>
      </trkpt>
      <trkpt lat="44.197" lon="4.23258">
        <ele>139</ele>
        <time>2013-02-26T14:17:13Z</time>
      </trkpt>
      <trkpt lat="44.19697" lon="4.23234">
        <ele>138</ele>
        <time>2013-02-26T14:17:37Z</time>
      </trkpt>
      <trkpt lat="44.19695" lon="4.2321">
        <ele>126</ele>
        <time>2013-02-26T14:17:57Z</time>
      </trkpt>
      <trkpt lat="44.19685" lon="4.2319">
        <ele>126</ele>
        <time>2013-02-26T14:18:13Z</time>
      </trkpt>
      <trkpt lat="44.19671" lon="4.23175">
        <ele>126</ele>
        <time>2013-02-26T14:18:30Z</time>
      </trkpt>
      <trkpt lat="44.19657" lon="4.23161">
        <ele>126</ele>
        <time>2013-02-26T14:18:46Z</time>
      </trkpt>
      <trkpt lat="44.19641" lon="4.23153">
        <ele>128</ele>
        <time>2013-02-26T14:19:01Z</time>
      </trkpt>
      <trkpt lat="44.19624" lon="4.23146">
        <ele>128</ele>
        <time>2013-02-26T14:19:17Z</time>
      </trkpt>
      <trkpt lat="44.19607" lon="4.23142">
        <ele>129</ele>
        <time>2013-02-26T14:19:34Z</time>
      </trkpt>
      <trkpt lat="44.19589" lon="4.23136">
        <ele>130</ele>
        <time>2013-02-26T14:19:52Z</time>
      </trkpt>
      <trkpt lat="44.19584" lon="4.23114">
        <ele>130</ele>
        <time>2013-02-26T14:20:10Z</time>
      </trkpt>
      <trkpt lat="44.1958" lon="4.23089">
        <ele>126</ele>
        <time>2013-02-26T14:20:30Z</time>
      </trkpt>
      <trkpt lat="44.19571" lon="4.23068">
        <ele>124</ele>
        <time>2013-02-26T14:20:48Z</time>
      </trkpt>
      <trkpt lat="44.19561" lon="4.23048">
        <ele>126</ele>
        <time>2013-02-26T14:21:04Z</time>
      </trkpt>
      <trkpt lat="44.1955" lon="4.23029">
        <ele>128</ele>
        <time>2013-02-26T14:21:20Z</time>
      </trkpt>
      <trkpt lat="44.1954" lon="4.2301">
        <ele>128</ele>
        <time>2013-02-26T14:21:36Z</time>
      </trkpt>
      <trkpt lat="44.19529" lon="4.2299">
        <ele>128</ele>
        <time>2013-02-26T14:21:52Z</time>
      </trkpt>
      <trkpt lat="44.19519" lon="4.22971">
        <ele>129</ele>
        <time>2013-02-26T14:22:08Z</time>
      </trkpt>
      <trkpt lat="44.19509" lon="4.22952">
        <ele>132</ele>
        <time>2013-02-26T14:22:22Z</time>
      </trkpt>
      <trkpt lat="44.19499" lon="4.22931">
        <ele>133</ele>
        <time>2013-02-26T14:22:39Z</time>
      </trkpt>
      <trkpt lat="44.19489" lon="4.2291">
        <ele>134</ele>
        <time>2013-02-26T14:22:54Z</time>
      </trkpt>
      <trkpt lat="44.1948" lon="4.2289">
        <ele>133</ele>
        <time>2013-02-26T14:23:10Z</time>
      </trkpt>
      <trkpt lat="44.19471" lon="4.22869">
        <ele>133</ele>
        <time>2013-02-26T14:23:26Z</time>
      </trkpt>
      <trkpt lat="44.19461" lon="4.22849">
        <ele>134</ele>
        <time>2013-02-26T14:23:41Z</time>
      </trkpt>
      <trkpt lat="44.19451" lon="4.22829">
        <ele>134</ele>
        <time>2013-02-26T14:23:57Z</time>
      </trkpt>
      <trkpt lat="44.1944" lon="4.2281">
        <ele>134</ele>
        <time>2013-02-26T14:24:12Z</time>
      </trkpt>
      <trkpt lat="44.19429" lon="4.22791">
        <ele>135</ele>
        <time>2013-02-26T14:24:28Z</time>
      </trkpt>
      <trkpt lat="44.19419" lon="4.22772">
        <ele>134</ele>
        <time>2013-02-26T14:24:44Z</time>
      </trkpt>
      <trkpt lat="44.19409" lon="4.22751">
        <ele>133</ele>
        <time>2013-02-26T14:25:01Z</time>
      </trkpt>
      <trkpt lat="44.19397" lon="4.22735">
        <ele>134</ele>
        <time>2013-02-26T14:25:16Z</time>
      </trkpt>
      <trkpt lat="44.19385" lon="4.22718">
        <ele>136</ele>
        <time>2013-02-26T14:25:31Z</time>
      </trkpt>
      <trkpt lat="44.19373" lon="4.22701">
        <ele>138</ele>
        <time>2013-02-26T14:25:46Z</time>
      </trkpt>
      <trkpt lat="44.19359" lon="4.22687">
        <ele>141</ele>
        <time>2013-02-26T14:26:02Z</time>
      </trkpt>
      <trkpt lat="44.19343" lon="4.22676">
        <ele>142</ele>
        <time>2013-02-26T14:26:17Z</time>
      </trkpt>
      <trkpt lat="44.19327" lon="4.22666">
        <ele>143</ele>
        <time>2013-02-26T14:26:32Z</time>
      </trkpt>
      <trkpt lat="44.19312" lon="4.22656">
        <ele>143</ele>
        <time>2013-02-26T14:26:47Z</time>
      </trkpt>
      <trkpt lat="44.19296" lon="4.22646">
        <ele>140</ele>
        <time>2013-02-26T14:27:04Z</time>
      </trkpt>
      <trkpt lat="44.1928" lon="4.22637">
        <ele>141</ele>
        <time>2013-02-26T14:27:20Z</time>
      </trkpt>
      <trkpt lat="44.19264" lon="4.22628">
        <ele>138</ele>
        <time>2013-02-26T14:27:36Z</time>
      </trkpt>
      <trkpt lat="44.19247" lon="4.2262">
        <ele>135</ele>
        <time>2013-02-26T14:27:53Z</time>
      </trkpt>
      <trkpt lat="44.19231" lon="4.22609">
        <ele>131</ele>
        <time>2013-02-26T14:28:10Z</time>
      </trkpt>
      <trkpt lat="44.19217" lon="4.22595">
        <ele>128</ele>
        <time>2013-02-26T14:28:27Z</time>
      </trkpt>
      <trkpt lat="44.19203" lon="4.22579">
        <ele>130</ele>
        <time>2013-02-26T14:28:41Z</time>
      </trkpt>
      <trkpt lat="44.1919" lon="4.22563">
        <ele>123</ele>
        <time>2013-02-26T14:29:03Z</time>
      </trkpt>
      <trkpt lat="44.19177" lon="4.22548">
        <ele>131</ele>
        <time>2013-02-26T14:29:15Z</time>
      </trkpt>
      <trkpt lat="44.19162" lon="4.22537">
        <ele>132</ele>
        <time>2013-02-26T14:29:31Z</time>
      </trkpt>
      <trkpt lat="44.19147" lon="4.22526">
        <ele>136</ele>
        <time>2013-02-26T14:29:47Z</time>
      </trkpt>
      <trkpt lat="44.19132" lon="4.22512">
        <ele>139</ele>
        <time>2013-02-26T14:30:04Z</time>
      </trkpt>
      <trkpt lat="44.19119" lon="4.22496">
        <ele>142</ele>
        <time>2013-02-26T14:30:19Z</time>
      </trkpt>
      <trkpt lat="44.19112" lon="4.22475">
        <ele>135</ele>
        <time>2013-02-26T14:30:39Z</time>
      </trkpt>
      <trkpt lat="44.19107" lon="4.22452">
        <ele>140</ele>
        <time>2013-02-26T14:30:55Z</time>
      </trkpt>
      <trkpt lat="44.19101" lon="4.22428">
        <ele>140</ele>
        <time>2013-02-26T14:31:15Z</time>
      </trkpt>
      <trkpt lat="44.19096" lon="4.22405">
        <ele>139</ele>
        <time>2013-02-26T14:31:34Z</time>
      </trkpt>
      <trkpt lat="44.19084" lon="4.22388">
        <ele>138</ele>
        <time>2013-02-26T14:31:50Z</time>
      </trkpt>
      <trkpt lat="44.19071" lon="4.2237">
        <ele>140</ele>
        <time>2013-02-26T14:32:06Z</time>
      </trkpt>
      <trkpt lat="44.19058" lon="4.22355">
        <ele>134</ele>
        <time>2013-02-26T14:32:25Z</time>
      </trkpt>
      <trkpt lat="44.19044" lon="4.22339">
        <ele>140</ele>
        <time>2013-02-26T14:32:38Z</time>
      </trkpt>
      <trkpt lat="44.19029" lon="4.22326">
        <ele>142</ele>
        <time>2013-02-26T14:32:54Z</time>
      </trkpt>
      <trkpt lat="44.19015" lon="4.22313">
        <ele>144</ele>
        <time>2013-02-26T14:33:10Z</time>
      </trkpt>
      <trkpt lat="44.19" lon="4.22299">
        <ele>144</ele>
        <time>2013-02-26T14:33:28Z</time>
      </trkpt>
      <trkpt lat="44.18986" lon="4.22284">
        <ele>146</ele>
        <time>2013-02-26T14:33:44Z</time>
      </trkpt>
      <trkpt lat="44.18971" lon="4.22272">
        <ele>142</ele>
        <time>2013-02-26T14:34:03Z</time>
      </trkpt>
      <trkpt lat="44.18955" lon="4.22264">
        <ele>144</ele>
        <time>2013-02-26T14:34:20Z</time>
      </trkpt>
      <trkpt lat="44.18939" lon="4.22256">
        <ele>153</ele>
        <time>2013-02-26T14:34:32Z</time>
      </trkpt>
      <trkpt lat="44.18922" lon="4.22253">
        <ele>154</ele>
        <time>2013-02-26T14:34:47Z</time>
      </trkpt>
      <trkpt lat="44.18905" lon="4.22246">
        <ele>147</ele>
        <time>2013-02-26T14:35:09Z</time>
      </trkpt>
      <trkpt lat="44.18889" lon="4.22234">
        <ele>143</ele>
        <time>2013-02-26T14:35:28Z</time>
      </trkpt>
      <trkpt lat="44.18873" lon="4.22223">
        <ele>144</ele>
        <time>2013-02-26T14:35:44Z</time>
      </trkpt>
      <trkpt lat="44.18858" lon="4.22212">
        <ele>145</ele>
        <time>2013-02-26T14:36:01Z</time>
      </trkpt>
      <trkpt lat="44.18843" lon="4.22198">
        <ele>145</ele>
        <time>2013-02-26T14:36:18Z</time>
      </trkpt>
      <trkpt lat="44.1883" lon="4.22182">
        <ele>154</ele>
        <time>2013-02-26T14:36:31Z</time>
      </trkpt>
      <trkpt lat="44.18821" lon="4.2216">
        <ele>149</ele>
        <time>2013-02-26T14:36:54Z</time>
      </trkpt>
      <trkpt lat="44.18814" lon="4.22139">
        <ele>142</ele>
        <time>2013-02-26T14:37:18Z</time>
      </trkpt>
      <trkpt lat="44.18801" lon="4.22122">
        <ele>142</ele>
        <time>2013-02-26T14:37:33Z</time>
      </trkpt>
      <trkpt lat="44.1879" lon="4.22103">
        <ele>147</ele>
        <time>2013-02-26T14:37:46Z</time>
      </trkpt>
      <trkpt lat="44.18778" lon="4.22086">
        <ele>150</ele>
        <time>2013-02-26T14:38:01Z</time>
      </trkpt>
      <trkpt lat="44.18765" lon="4.2207">
        <ele>154</ele>
        <time>2013-02-26T14:38:24Z</time>
      </trkpt>
      <trkpt lat="44.18751" lon="4.22085">
        <ele>156</ele>
        <time>2013-02-26T14:38:51Z</time>
      </trkpt>
      <trkpt lat="44.18739" lon="4.22102">
        <ele>157</ele>
        <time>2013-02-26T14:39:12Z</time>
      </trkpt>
      <trkpt lat="44.18723" lon="4.22113">
        <ele>158</ele>
        <time>2013-02-26T14:39:31Z</time>
      </trkpt>
      <trkpt lat="44.18707" lon="4.22117">
        <ele>161</ele>
        <time>2013-02-26T14:39:50Z</time>
      </trkpt>
      <trkpt lat="44.18691" lon="4.22105">
        <ele>166</ele>
        <time>2013-02-26T14:40:13Z</time>
      </trkpt>
      <trkpt lat="44.18695" lon="4.22081">
        <ele>168</ele>
        <time>2013-02-26T14:40:36Z</time>
      </trkpt>
      <trkpt lat="44.18701" lon="4.22058">
        <ele>170</ele>
        <time>2013-02-26T14:40:58Z</time>
      </trkpt>
      <trkpt lat="44.18702" lon="4.22034">
        <ele>172</ele>
        <time>2013-02-26T14:41:21Z</time>
      </trkpt>
      <trkpt lat="44.18704" lon="4.22009">
        <ele>170</ele>
        <time>2013-02-26T14:41:41Z</time>
      </trkpt>
      <trkpt lat="44.18688" lon="4.21999">
        <ele>164</ele>
        <time>2013-02-26T14:42:02Z</time>
      </trkpt>
      <trkpt lat="44.18671" lon="4.22006">
        <ele>170</ele>
        <time>2013-02-26T14:42:25Z</time>
      </trkpt>
      <trkpt lat="44.18654" lon="4.22013">
        <ele>167</ele>
        <time>2013-02-26T14:42:45Z</time>
      </trkpt>
      <trkpt lat="44.18637" lon="4.22018">
        <ele>159</ele>
        <time>2013-02-26T14:43:09Z</time>
      </trkpt>
      <trkpt lat="44.18624" lon="4.22001">
        <ele>171</ele>
        <time>2013-02-26T14:43:32Z</time>
      </trkpt>
      <trkpt lat="44.18607" lon="4.22004">
        <ele>174</ele>
        <time>2013-02-26T14:44:00Z</time>
      </trkpt>
      <trkpt lat="44.18591" lon="4.22012">
        <ele>174</ele>
        <time>2013-02-26T14:44:22Z</time>
      </trkpt>
      <trkpt lat="44.1859" lon="4.21987">
        <ele>174</ele>
        <time>2013-02-26T14:45:28Z</time>
      </trkpt>
      <trkpt lat="44.18605" lon="4.22">
        <ele>174</ele>
        <time>2013-02-26T14:46:07Z</time>
      </trkpt>
      <trkpt lat="44.18622" lon="4.21991">
        <ele>171</ele>
        <time>2013-02-26T14:46:26Z</time>
      </trkpt>
      <trkpt lat="44.18619" lon="4.21967">
        <ele>170</ele>
        <time>2013-02-26T14:47:07Z</time>
      </trkpt>
      <trkpt lat="44.18612" lon="4.21945">
        <ele>164</ele>
        <time>2013-02-26T14:47:28Z</time>
      </trkpt>
      <trkpt lat="44.18606" lon="4.21922">
        <ele>163</ele>
        <time>2013-02-26T14:47:48Z</time>
      </trkpt>
      <trkpt lat="44.18601" lon="4.21899">
        <ele>170</ele>
        <time>2013-02-26T14:48:00Z</time>
      </trkpt>
      <trkpt lat="44.18603" lon="4.21875">
        <ele>173</ele>
        <time>2013-02-26T14:48:16Z</time>
      </trkpt>
      <trkpt lat="44.186" lon="4.21851">
        <ele>169</ele>
        <time>2013-02-26T14:48:34Z</time>
      </trkpt>
      <trkpt lat="44.18595" lon="4.21827">
        <ele>164</ele>
        <time>2013-02-26T14:48:54Z</time>
      </trkpt>
      <trkpt lat="44.18587" lon="4.21805">
        <ele>166</ele>
        <time>2013-02-26T14:49:09Z</time>
      </trkpt>
      <trkpt lat="44.18577" lon="4.21784">
        <ele>164</ele>
        <time>2013-02-26T14:49:28Z</time>
      </trkpt>
      <trkpt lat="44.18572" lon="4.21761">
        <ele>162</ele>
        <time>2013-02-26T14:49:46Z</time>
      </trkpt>
      <trkpt lat="44.18563" lon="4.21739">
        <ele>168</ele>
        <time>2013-02-26T14:50:23Z</time>
      </trkpt>
      <trkpt lat="44.18551" lon="4.21721">
        <ele>162</ele>
        <time>2013-02-26T14:52:25Z</time>
      </trkpt>
      <trkpt lat="44.18538" lon="4.21706">
        <ele>158</ele>
        <time>2013-02-26T14:52:44Z</time>
      </trkpt>
      <trkpt lat="44.18526" lon="4.21688">
        <ele>158</ele>
        <time>2013-02-26T14:53:03Z</time>
      </trkpt>
      <trkpt lat="44.18516" lon="4.21669">
        <ele>156</ele>
        <time>2013-02-26T14:53:20Z</time>
      </trkpt>
      <trkpt lat="44.18508" lon="4.21648">
        <ele>156</ele>
        <time>2013-02-26T14:53:35Z</time>
      </trkpt>
      <trkpt lat="44.18503" lon="4.21625">
        <ele>156</ele>
        <time>2013-02-26T14:53:51Z</time>
      </trkpt>
      <trkpt lat="44.18498" lon="4.21601">
        <ele>154</ele>
        <time>2013-02-26T14:54:08Z</time>
      </trkpt>
      <trkpt lat="44.18493" lon="4.21577">
        <ele>155</ele>
        <time>2013-02-26T14:54:23Z</time>
      </trkpt>
      <trkpt lat="44.1849" lon="4.21553">
        <ele>157</ele>
        <time>2013-02-26T14:54:39Z</time>
      </trkpt>
      <trkpt lat="44.18489" lon="4.21529">
        <ele>157</ele>
        <time>2013-02-26T14:54:57Z</time>
      </trkpt>
      <trkpt lat="44.18483" lon="4.21506">
        <ele>157</ele>
        <time>2013-02-26T14:55:14Z</time>
      </trkpt>
      <trkpt lat="44.18476" lon="4.21484">
        <ele>157</ele>
        <time>2013-02-26T14:55:30Z</time>
      </trkpt>
      <trkpt lat="44.18469" lon="4.21461">
        <ele>158</ele>
        <time>2013-02-26T14:55:47Z</time>
      </trkpt>
      <trkpt lat="44.18463" lon="4.21439">
        <ele>159</ele>
        <time>2013-02-26T14:56:04Z</time>
      </trkpt>
      <trkpt lat="44.18456" lon="4.21416">
        <ele>159</ele>
        <time>2013-02-26T14:56:23Z</time>
      </trkpt>
      <trkpt lat="44.18451" lon="4.21393">
        <ele>158</ele>
        <time>2013-02-26T14:56:40Z</time>
      </trkpt>
      <trkpt lat="44.18446" lon="4.2137">
        <ele>158</ele>
        <time>2013-02-26T14:56:57Z</time>
      </trkpt>
      <trkpt lat="44.18437" lon="4.21349">
        <ele>160</ele>
        <time>2013-02-26T14:57:13Z</time>
      </trkpt>
      <trkpt lat="44.18425" lon="4.2133">
        <ele>161</ele>
        <time>2013-02-26T14:57:29Z</time>
      </trkpt>
      <trkpt lat="44.18415" lon="4.21311">
        <ele>163</ele>
        <time>2013-02-26T14:57:43Z</time>
      </trkpt>
      <trkpt lat="44.18409" lon="4.21288">
        <ele>161</ele>
        <time>2013-02-26T14:58:04Z</time>
      </trkpt>
      <trkpt lat="44.1841" lon="4.21263">
        <ele>164</ele>
        <time>2013-02-26T14:58:23Z</time>
      </trkpt>
      <trkpt lat="44.18417" lon="4.21241">
        <ele>162</ele>
        <time>2013-02-26T14:58:40Z</time>
      </trkpt>
      <trkpt lat="44.18422" lon="4.21218">
        <ele>160</ele>
        <time>2013-02-26T14:58:56Z</time>
      </trkpt>
      <trkpt lat="44.18429" lon="4.21197">
        <ele>161</ele>
        <time>2013-02-26T14:59:14Z</time>
      </trkpt>
      <trkpt lat="44.18436" lon="4.21174">
        <ele>161</ele>
        <time>2013-02-26T14:59:31Z</time>
      </trkpt>
      <trkpt lat="44.18433" lon="4.21151">
        <ele>161</ele>
        <time>2013-02-26T14:59:48Z</time>
      </trkpt>
      <trkpt lat="44.18429" lon="4.21127">
        <ele>162</ele>
        <time>2013-02-26T15:00:07Z</time>
      </trkpt>
      <trkpt lat="44.18428" lon="4.21103">
        <ele>162</ele>
        <time>2013-02-26T15:00:26Z</time>
      </trkpt>
      <trkpt lat="44.18424" lon="4.21079">
        <ele>164</ele>
        <time>2013-02-26T15:00:42Z</time>
      </trkpt>
      <trkpt lat="44.18417" lon="4.21056">
        <ele>166</ele>
        <time>2013-02-26T15:00:59Z</time>
      </trkpt>
      <trkpt lat="44.1841" lon="4.21034">
        <ele>168</ele>
        <time>2013-02-26T15:01:17Z</time>
      </trkpt>
      <trkpt lat="44.18398" lon="4.21015">
        <ele>168</ele>
        <time>2013-02-26T15:01:37Z</time>
      </trkpt>
      <trkpt lat="44.18383" lon="4.21004">
        <ele>166</ele>
        <time>2013-02-26T15:01:58Z</time>
      </trkpt>
      <trkpt lat="44.18368" lon="4.2099">
        <ele>165</ele>
        <time>2013-02-26T15:02:16Z</time>
      </trkpt>
      <trkpt lat="44.18354" lon="4.20977">
        <ele>166</ele>
        <time>2013-02-26T15:02:33Z</time>
      </trkpt>
      <trkpt lat="44.18339" lon="4.20963">
        <ele>166</ele>
        <time>2013-02-26T15:02:51Z</time>
      </trkpt>
      <trkpt lat="44.18327" lon="4.20946">
        <ele>169</ele>
        <time>2013-02-26T15:03:08Z</time>
      </trkpt>
      <trkpt lat="44.18314" lon="4.2093">
        <ele>169</ele>
        <time>2013-02-26T15:03:26Z</time>
      </trkpt>
      <trkpt lat="44.18299" lon="4.20916">
        <ele>167</ele>
        <time>2013-02-26T15:03:45Z</time>
      </trkpt>
      <trkpt lat="44.18284" lon="4.20904">
        <ele>169</ele>
        <time>2013-02-26T15:04:02Z</time>
      </trkpt>
      <trkpt lat="44.18267" lon="4.209">
        <ele>167</ele>
        <time>2013-02-26T15:04:20Z</time>
      </trkpt>
      <trkpt lat="44.18249" lon="4.20894">
        <ele>167</ele>
        <time>2013-02-26T15:04:38Z</time>
      </trkpt>
      <trkpt lat="44.18234" lon="4.20882">
        <ele>173</ele>
        <time>2013-02-26T15:04:54Z</time>
      </trkpt>
      <trkpt lat="44.18218" lon="4.20871">
        <ele>175</ele>
        <time>2013-02-26T15:05:13Z</time>
      </trkpt>
      <trkpt lat="44.18202" lon="4.20861">
        <ele>173</ele>
        <time>2013-02-26T15:05:31Z</time>
      </trkpt>
      <trkpt lat="44.18187" lon="4.20851">
        <ele>173</ele>
        <time>2013-02-26T15:05:48Z</time>
      </trkpt>
      <trkpt lat="44.18176" lon="4.20832">
        <ele>174</ele>
        <time>2013-02-26T15:06:04Z</time>
      </trkpt>
      <trkpt lat="44.18165" lon="4.20812">
        <ele>176</ele>
        <time>2013-02-26T15:06:19Z</time>
      </trkpt>
      <trkpt lat="44.18148" lon="4.20811">
        <ele>175</ele>
        <time>2013-02-26T15:06:36Z</time>
      </trkpt>
      <trkpt lat="44.1813" lon="4.20806">
        <ele>175</ele>
        <time>2013-02-26T15:06:55Z</time>
      </trkpt>
      <trkpt lat="44.18113" lon="4.20802">
        <ele>172</ele>
        <time>2013-02-26T15:07:14Z</time>
      </trkpt>
      <trkpt lat="44.18096" lon="4.20799">
        <ele>171</ele>
        <time>2013-02-26T15:07:30Z</time>
      </trkpt>
      <trkpt lat="44.18079" lon="4.20798">
        <ele>171</ele>
        <time>2013-02-26T15:07:46Z</time>
      </trkpt>
      <trkpt lat="44.18061" lon="4.208">
        <ele>173</ele>
        <time>2013-02-26T15:08:01Z</time>
      </trkpt>
      <trkpt lat="44.18044" lon="4.20803">
        <ele>174</ele>
        <time>2013-02-26T15:08:17Z</time>
      </trkpt>
      <trkpt lat="44.18026" lon="4.20806">
        <ele>173</ele>
        <time>2013-02-26T15:08:34Z</time>
      </trkpt>
      <trkpt lat="44.18009" lon="4.20807">
        <ele>168</ele>
        <time>2013-02-26T15:08:54Z</time>
      </trkpt>
      <trkpt lat="44.17992" lon="4.20805">
        <ele>165</ele>
        <time>2013-02-26T15:09:12Z</time>
      </trkpt>
      <trkpt lat="44.17974" lon="4.20801">
        <ele>168</ele>
        <time>2013-02-26T15:09:27Z</time>
      </trkpt>
      <trkpt lat="44.17957" lon="4.20796">
        <ele>173</ele>
        <time>2013-02-26T15:09:42Z</time>
      </trkpt>
      <trkpt lat="44.1794" lon="4.20794">
        <ele>174</ele>
        <time>2013-02-26T15:09:58Z</time>
      </trkpt>
      <trkpt lat="44.17923" lon="4.20795">
        <ele>174</ele>
        <time>2013-02-26T15:10:14Z</time>
      </trkpt>
      <trkpt lat="44.17906" lon="4.208">
        <ele>173</ele>
        <time>2013-02-26T15:10:30Z</time>
      </trkpt>
      <trkpt lat="44.17888" lon="4.20805">
        <ele>173</ele>
        <time>2013-02-26T15:10:46Z</time>
      </trkpt>
      <trkpt lat="44.17871" lon="4.2081">
        <ele>173</ele>
        <time>2013-02-26T15:11:03Z</time>
      </trkpt>
      <trkpt lat="44.17854" lon="4.20817">
        <ele>174</ele>
        <time>2013-02-26T15:11:20Z</time>
      </trkpt>
      <trkpt lat="44.17837" lon="4.20824">
        <ele>175</ele>
        <time>2013-02-26T15:11:36Z</time>
      </trkpt>
      <trkpt lat="44.1782" lon="4.2083">
        <ele>176</ele>
        <time>2013-02-26T15:11:53Z</time>
      </trkpt>
      <trkpt lat="44.17804" lon="4.20837">
        <ele>178</ele>
        <time>2013-02-26T15:12:09Z</time>
      </trkpt>
      <trkpt lat="44.17787" lon="4.20841">
        <ele>177</ele>
        <time>2013-02-26T15:12:27Z</time>
      </trkpt>
      <trkpt lat="44.17769" lon="4.20844">
        <ele>174</ele>
        <time>2013-02-26T15:12:46Z</time>
      </trkpt>
      <trkpt lat="44.17751" lon="4.20843">
        <ele>175</ele>
        <time>2013-02-26T15:13:02Z</time>
      </trkpt>
      <trkpt lat="44.17734" lon="4.20844">
        <ele>176</ele>
        <time>2013-02-26T15:13:20Z</time>
      </trkpt>
      <trkpt lat="44.17716" lon="4.20843">
        <ele>181</ele>
        <time>2013-02-26T15:13:37Z</time>
      </trkpt>
      <trkpt lat="44.17699" lon="4.20845">
        <ele>182</ele>
        <time>2013-02-26T15:13:55Z</time>
      </trkpt>
      <trkpt lat="44.17682" lon="4.2085">
        <ele>181</ele>
        <time>2013-02-26T15:14:13Z</time>
      </trkpt>
      <trkpt lat="44.17665" lon="4.20856">
        <ele>184</ele>
        <time>2013-02-26T15:14:30Z</time>
      </trkpt>
      <trkpt lat="44.17648" lon="4.2086">
        <ele>185</ele>
        <time>2013-02-26T15:14:48Z</time>
      </trkpt>
      <trkpt lat="44.1763" lon="4.20865">
        <ele>183</ele>
        <time>2013-02-26T15:15:06Z</time>
      </trkpt>
      <trkpt lat="44.17613" lon="4.20868">
        <ele>186</ele>
        <time>2013-02-26T15:15:22Z</time>
      </trkpt>
      <trkpt lat="44.17596" lon="4.2087">
        <ele>188</ele>
        <time>2013-02-26T15:15:38Z</time>
      </trkpt>
      <trkpt lat="44.17578" lon="4.20869">
        <ele>188</ele>
        <time>2013-02-26T15:15:55Z</time>
      </trkpt>
      <trkpt lat="44.17561" lon="4.20865">
        <ele>185</ele>
        <time>2013-02-26T15:16:14Z</time>
      </trkpt>
      <trkpt lat="44.17544" lon="4.20862">
        <ele>188</ele>
        <time>2013-02-26T15:16:31Z</time>
      </trkpt>
      <trkpt lat="44.17526" lon="4.20863">
        <ele>185</ele>
        <time>2013-02-26T15:16:52Z</time>
      </trkpt>
      <trkpt lat="44.17509" lon="4.20867">
        <ele>188</ele>
        <time>2013-02-26T15:17:11Z</time>
      </trkpt>
      <trkpt lat="44.17496" lon="4.20885">
        <ele>191</ele>
        <time>2013-02-26T15:17:34Z</time>
      </trkpt>
      <trkpt lat="44.17485" lon="4.20904">
        <ele>193</ele>
        <time>2013-02-26T15:17:52Z</time>
      </trkpt>
      <trkpt lat="44.17479" lon="4.20927">
        <ele>196</ele>
        <time>2013-02-26T15:18:08Z</time>
      </trkpt>
      <trkpt lat="44.17478" lon="4.20952">
        <ele>195</ele>
        <time>2013-02-26T15:18:25Z</time>
      </trkpt>
      <trkpt lat="44.17474" lon="4.20976">
        <ele>193</ele>
        <time>2013-02-26T15:18:42Z</time>
      </trkpt>
      <trkpt lat="44.17474" lon="4.21001">
        <ele>192</ele>
        <time>2013-02-26T15:18:59Z</time>
      </trkpt>
      <trkpt lat="44.17481" lon="4.21023">
        <ele>193</ele>
        <time>2013-02-26T15:19:16Z</time>
      </trkpt>
      <trkpt lat="44.17491" lon="4.21043">
        <ele>196</ele>
        <time>2013-02-26T15:19:33Z</time>
      </trkpt>
      <trkpt lat="44.17501" lon="4.21062">
        <ele>198</ele>
        <time>2013-02-26T15:19:50Z</time>
      </trkpt>
      <trkpt lat="44.17515" lon="4.21078">
        <ele>198</ele>
        <time>2013-02-26T15:20:08Z</time>
      </trkpt>
      <trkpt lat="44.17526" lon="4.21096">
        <ele>198</ele>
        <time>2013-02-26T15:20:26Z</time>
      </trkpt>
      <trkpt lat="44.17539" lon="4.21113">
        <ele>195</ele>
        <time>2013-02-26T15:20:42Z</time>
      </trkpt>
      <trkpt lat="44.17547" lon="4.21133">
        <ele>196</ele>
        <time>2013-02-26T15:20:56Z</time>
      </trkpt>
      <trkpt lat="44.17556" lon="4.21154">
        <ele>201</ele>
        <time>2013-02-26T15:21:11Z</time>
      </trkpt>
      <trkpt lat="44.17564" lon="4.21175">
        <ele>200</ele>
        <time>2013-02-26T15:21:27Z</time>
      </trkpt>
      <trkpt lat="44.1757" lon="4.21198">
        <ele>197</ele>
        <time>2013-02-26T15:21:43Z</time>
      </trkpt>
      <trkpt lat="44.17577" lon="4.21221">
        <ele>196</ele>
        <time>2013-02-26T15:22:02Z</time>
      </trkpt>
      <trkpt lat="44.17588" lon="4.21239">
        <ele>194</ele>
        <time>2013-02-26T15:22:21Z</time>
      </trkpt>
      <trkpt lat="44.17603" lon="4.21254">
        <ele>194</ele>
        <time>2013-02-26T15:22:39Z</time>
      </trkpt>
      <trkpt lat="44.17619" lon="4.21264">
        <ele>191</ele>
        <time>2013-02-26T15:22:58Z</time>
      </trkpt>
      <trkpt lat="44.17634" lon="4.21275">
        <ele>185</ele>
        <time>2013-02-26T15:23:19Z</time>
      </trkpt>
      <trkpt lat="44.17648" lon="4.21291">
        <ele>178</ele>
        <time>2013-02-26T15:23:37Z</time>
      </trkpt>
      <trkpt lat="44.17661" lon="4.21308">
        <ele>180</ele>
        <time>2013-02-26T15:23:56Z</time>
      </trkpt>
      <trkpt lat="44.17675" lon="4.21322">
        <ele>176</ele>
        <time>2013-02-26T15:24:14Z</time>
      </trkpt>
      <trkpt lat="44.17688" lon="4.21338">
        <ele>171</ele>
        <time>2013-02-26T15:24:32Z</time>
      </trkpt>
      <trkpt lat="44.177" lon="4.21357">
        <ele>169</ele>
        <time>2013-02-26T15:24:50Z</time>
      </trkpt>
      <trkpt lat="44.1771" lon="4.21376">
        <ele>176</ele>
        <time>2013-02-26T15:25:05Z</time>
      </trkpt>
      <trkpt lat="44.1772" lon="4.21396">
        <ele>183</ele>
        <time>2013-02-26T15:25:19Z</time>
      </trkpt>
      <trkpt lat="44.17731" lon="4.21415">
        <ele>190</ele>
        <time>2013-02-26T15:25:34Z</time>
      </trkpt>
      <trkpt lat="44.17741" lon="4.21436">
        <ele>194</ele>
        <time>2013-02-26T15:25:51Z</time>
      </trkpt>
      <trkpt lat="44.17749" lon="4.21458">
        <ele>198</ele>
        <time>2013-02-26T15:26:08Z</time>
      </trkpt>
      <trkpt lat="44.17758" lon="4.21478">
        <ele>194</ele>
        <time>2013-02-26T15:26:25Z</time>
      </trkpt>
      <trkpt lat="44.17768" lon="4.21498">
        <ele>190</ele>
        <time>2013-02-26T15:26:43Z</time>
      </trkpt>
      <trkpt lat="44.17779" lon="4.21517">
        <ele>188</ele>
        <time>2013-02-26T15:26:59Z</time>
      </trkpt>
      <trkpt lat="44.17789" lon="4.21536">
        <ele>190</ele>
        <time>2013-02-26T15:27:14Z</time>
      </trkpt>
      <trkpt lat="44.17799" lon="4.21556">
        <ele>195</ele>
        <time>2013-02-26T15:27:31Z</time>
      </trkpt>
      <trkpt lat="44.178" lon="4.21581">
        <ele>196</ele>
        <time>2013-02-26T15:28:11Z</time>
      </trkpt>
      <trkpt lat="44.17794" lon="4.21604">
        <ele>199</ele>
        <time>2013-02-26T15:28:48Z</time>
      </trkpt>
      <trkpt lat="44.17797" lon="4.21581">
        <ele>203</ele>
        <time>2013-02-26T15:29:38Z</time>
      </trkpt>
      <trkpt lat="44.17814" lon="4.21579">
        <ele>196</ele>
        <time>2013-02-26T15:31:05Z</time>
      </trkpt>
      <trkpt lat="44.17827" lon="4.21594">
        <ele>191</ele>
        <time>2013-02-26T15:31:21Z</time>
      </trkpt>
      <trkpt lat="44.17842" lon="4.21608">
        <ele>189</ele>
        <time>2013-02-26T15:31:39Z</time>
      </trkpt>
      <trkpt lat="44.17855" lon="4.21625">
        <ele>186</ele>
        <time>2013-02-26T15:31:55Z</time>
      </trkpt>
      <trkpt lat="44.17867" lon="4.21643">
        <ele>182</ele>
        <time>2013-02-26T15:32:16Z</time>
      </trkpt>
      <trkpt lat="44.1788" lon="4.21661">
        <ele>182</ele>
        <time>2013-02-26T15:32:34Z</time>
      </trkpt>
      <trkpt lat="44.17894" lon="4.21675">
        <ele>182</ele>
        <time>2013-02-26T15:32:50Z</time>
      </trkpt>
      <trkpt lat="44.17905" lon="4.21694">
        <ele>181</ele>
        <time>2013-02-26T15:33:07Z</time>
      </trkpt>
      <trkpt lat="44.17915" lon="4.21714">
        <ele>184</ele>
        <time>2013-02-26T15:33:25Z</time>
      </trkpt>
      <trkpt lat="44.17927" lon="4.21733">
        <ele>186</ele>
        <time>2013-02-26T15:33:41Z</time>
      </trkpt>
      <trkpt lat="44.17939" lon="4.21751">
        <ele>187</ele>
        <time>2013-02-26T15:33:58Z</time>
      </trkpt>
      <trkpt lat="44.17951" lon="4.21768">
        <ele>184</ele>
        <time>2013-02-26T15:34:14Z</time>
      </trkpt>
      <trkpt lat="44.17958" lon="4.2179">
        <ele>188</ele>
        <time>2013-02-26T15:34:30Z</time>
      </trkpt>
      <trkpt lat="44.17969" lon="4.21808">
        <ele>192</ele>
        <time>2013-02-26T15:34:47Z</time>
      </trkpt>
      <trkpt lat="44.17983" lon="4.21824">
        <ele>194</ele>
        <time>2013-02-26T15:35:04Z</time>
      </trkpt>
      <trkpt lat="44.17994" lon="4.21844">
        <ele>196</ele>
        <time>2013-02-26T15:35:23Z</time>
      </trkpt>
      <trkpt lat="44.18003" lon="4.21865">
        <ele>193</ele>
        <time>2013-02-26T15:35:46Z</time>
      </trkpt>
      <trkpt lat="44.1801" lon="4.21887">
        <ele>201</ele>
        <time>2013-02-26T15:36:04Z</time>
      </trkpt>
      <trkpt lat="44.18015" lon="4.21911">
        <ele>203</ele>
        <time>2013-02-26T15:36:23Z</time>
      </trkpt>
      <trkpt lat="44.18021" lon="4.21933">
        <ele>198</ele>
        <time>2013-02-26T15:36:42Z</time>
      </trkpt>
      <trkpt lat="44.18027" lon="4.21956">
        <ele>198</ele>
        <time>2013-02-26T15:36:58Z</time>
      </trkpt>
      <trkpt lat="44.18035" lon="4.21978">
        <ele>200</ele>
        <time>2013-02-26T15:37:15Z</time>
      </trkpt>
      <trkpt lat="44.18047" lon="4.21997">
        <ele>198</ele>
        <time>2013-02-26T15:37:32Z</time>
      </trkpt>
      <trkpt lat="44.18058" lon="4.22015">
        <ele>198</ele>
        <time>2013-02-26T15:37:47Z</time>
      </trkpt>
      <trkpt lat="44.1807" lon="4.22033">
        <ele>196</ele>
        <time>2013-02-26T15:38:02Z</time>
      </trkpt>
      <trkpt lat="44.18083" lon="4.2205">
        <ele>197</ele>
        <time>2013-02-26T15:38:20Z</time>
      </trkpt>
      <trkpt lat="44.181" lon="4.22048">
        <ele>199</ele>
        <time>2013-02-26T15:38:49Z</time>
      </trkpt>
      <trkpt lat="44.18114" lon="4.22033">
        <ele>196</ele>
        <time>2013-02-26T15:39:06Z</time>
      </trkpt>
      <trkpt lat="44.1813" lon="4.22021">
        <ele>195</ele>
        <time>2013-02-26T15:39:22Z</time>
      </trkpt>
      <trkpt lat="44.18147" lon="4.22028">
        <ele>192</ele>
        <time>2013-02-26T15:39:42Z</time>
      </trkpt>
      <trkpt lat="44.18162" lon="4.2204">
        <ele>190</ele>
        <time>2013-02-26T15:40:01Z</time>
      </trkpt>
      <trkpt lat="44.18178" lon="4.22051">
        <ele>188</ele>
        <time>2013-02-26T15:40:19Z</time>
      </trkpt>
      <trkpt lat="44.18194" lon="4.22062">
        <ele>187</ele>
        <time>2013-02-26T15:40:35Z</time>
      </trkpt>
      <trkpt lat="44.18209" lon="4.22073">
        <ele>186</ele>
        <time>2013-02-26T15:40:50Z</time>
      </trkpt>
      <trkpt lat="44.18224" lon="4.22086">
        <ele>187</ele>
        <time>2013-02-26T15:41:07Z</time>
      </trkpt>
      <trkpt lat="44.1824" lon="4.22096">
        <ele>184</ele>
        <time>2013-02-26T15:41:23Z</time>
      </trkpt>
      <trkpt lat="44.18257" lon="4.22107">
        <ele>182</ele>
        <time>2013-02-26T15:41:40Z</time>
      </trkpt>
      <trkpt lat="44.18272" lon="4.22117">
        <ele>181</ele>
        <time>2013-02-26T15:41:55Z</time>
      </trkpt>
      <trkpt lat="44.18289" lon="4.22123">
        <ele>182</ele>
        <time>2013-02-26T15:42:07Z</time>
      </trkpt>
      <trkpt lat="44.18306" lon="4.22129">
        <ele>181</ele>
        <time>2013-02-26T15:42:22Z</time>
      </trkpt>
      <trkpt lat="44.18323" lon="4.22135">
        <ele>180</ele>
        <time>2013-02-26T15:42:38Z</time>
      </trkpt>
      <trkpt lat="44.1834" lon="4.22142">
        <ele>179</ele>
        <time>2013-02-26T15:42:53Z</time>
      </trkpt>
      <trkpt lat="44.18356" lon="4.2215">
        <ele>177</ele>
        <time>2013-02-26T15:43:09Z</time>
      </trkpt>
      <trkpt lat="44.18372" lon="4.22157">
        <ele>174</ele>
        <time>2013-02-26T15:43:25Z</time>
      </trkpt>
      <trkpt lat="44.18389" lon="4.22166">
        <ele>176</ele>
        <time>2013-02-26T15:43:37Z</time>
      </trkpt>
      <trkpt lat="44.18404" lon="4.22179">
        <ele>176</ele>
        <time>2013-02-26T15:43:53Z</time>
      </trkpt>
      <trkpt lat="44.18414" lon="4.22198">
        <ele>175</ele>
        <time>2013-02-26T15:44:10Z</time>
      </trkpt>
      <trkpt lat="44.18425" lon="4.22217">
        <ele>174</ele>
        <time>2013-02-26T15:44:29Z</time>
      </trkpt>
      <trkpt lat="44.18439" lon="4.22232">
        <ele>171</ele>
        <time>2013-02-26T15:44:46Z</time>
      </trkpt>
      <trkpt lat="44.18452" lon="4.22248">
        <ele>168</ele>
        <time>2013-02-26T15:45:01Z</time>
      </trkpt>
      <trkpt lat="44.18461" lon="4.22269">
        <ele>172</ele>
        <time>2013-02-26T15:45:17Z</time>
      </trkpt>
      <trkpt lat="44.18469" lon="4.22291">
        <ele>172</ele>
        <time>2013-02-26T15:45:35Z</time>
      </trkpt>
      <trkpt lat="44.18477" lon="4.22312">
        <ele>172</ele>
        <time>2013-02-26T15:45:51Z</time>
      </trkpt>
      <trkpt lat="44.18486" lon="4.22334">
        <ele>174</ele>
        <time>2013-02-26T15:46:08Z</time>
      </trkpt>
      <trkpt lat="44.18494" lon="4.22355">
        <ele>174</ele>
        <time>2013-02-26T15:46:23Z</time>
      </trkpt>
      <trkpt lat="44.18504" lon="4.22375">
        <ele>175</ele>
        <time>2013-02-26T15:46:40Z</time>
      </trkpt>
      <trkpt lat="44.18518" lon="4.2239">
        <ele>173</ele>
        <time>2013-02-26T15:46:58Z</time>
      </trkpt>
      <trkpt lat="44.18532" lon="4.22403">
        <ele>169</ele>
        <time>2013-02-26T15:47:15Z</time>
      </trkpt>
      <trkpt lat="44.18546" lon="4.22417">
        <ele>166</ele>
        <time>2013-02-26T15:47:31Z</time>
      </trkpt>
      <trkpt lat="44.1856" lon="4.22433">
        <ele>169</ele>
        <time>2013-02-26T15:47:45Z</time>
      </trkpt>
      <trkpt lat="44.18574" lon="4.22447">
        <ele>168</ele>
        <time>2013-02-26T15:48:02Z</time>
      </trkpt>
      <trkpt lat="44.18591" lon="4.22452">
        <ele>167</ele>
        <time>2013-02-26T15:48:23Z</time>
      </trkpt>
      <trkpt lat="44.18608" lon="4.2246">
        <ele>163</ele>
        <time>2013-02-26T15:48:41Z</time>
      </trkpt>
      <trkpt lat="44.18625" lon="4.22468">
        <ele>161</ele>
        <time>2013-02-26T15:48:56Z</time>
      </trkpt>
      <trkpt lat="44.18641" lon="4.22477">
        <ele>162</ele>
        <time>2013-02-26T15:49:13Z</time>
      </trkpt>
      <trkpt lat="44.18656" lon="4.2249">
        <ele>165</ele>
        <time>2013-02-26T15:49:27Z</time>
      </trkpt>
      <trkpt lat="44.18672" lon="4.22502">
        <ele>162</ele>
        <time>2013-02-26T15:49:46Z</time>
      </trkpt>
      <trkpt lat="44.18686" lon="4.22515">
        <ele>164</ele>
        <time>2013-02-26T15:50:01Z</time>
      </trkpt>
      <trkpt lat="44.18702" lon="4.22525">
        <ele>162</ele>
        <time>2013-02-26T15:50:20Z</time>
      </trkpt>
      <trkpt lat="44.18719" lon="4.22532">
        <ele>164</ele>
        <time>2013-02-26T15:50:37Z</time>
      </trkpt>
      <trkpt lat="44.18732" lon="4.22549">
        <ele>166</ele>
        <time>2013-02-26T15:50:57Z</time>
      </trkpt>
      <trkpt lat="44.18737" lon="4.22571">
        <ele>164</ele>
        <time>2013-02-26T15:51:11Z</time>
      </trkpt>
      <trkpt lat="44.18741" lon="4.22595">
        <ele>165</ele>
        <time>2013-02-26T15:51:25Z</time>
      </trkpt>
      <trkpt lat="44.18746" lon="4.22618">
        <ele>161</ele>
        <time>2013-02-26T15:51:41Z</time>
      </trkpt>
      <trkpt lat="44.18737" lon="4.22639">
        <ele>162</ele>
        <time>2013-02-26T15:51:56Z</time>
      </trkpt>
      <trkpt lat="44.1872" lon="4.2263">
        <ele>160</ele>
        <time>2013-02-26T15:52:17Z</time>
      </trkpt>
      <trkpt lat="44.18706" lon="4.22616">
        <ele>160</ele>
        <time>2013-02-26T15:52:31Z</time>
      </trkpt>
      <trkpt lat="44.18691" lon="4.22604">
        <ele>155</ele>
        <time>2013-02-26T15:52:45Z</time>
      </trkpt>
      <trkpt lat="44.18674" lon="4.22599">
        <ele>151</ele>
        <time>2013-02-26T15:53:04Z</time>
      </trkpt>
      <trkpt lat="44.18659" lon="4.22613">
        <ele>149</ele>
        <time>2013-02-26T15:53:22Z</time>
      </trkpt>
      <trkpt lat="44.18655" lon="4.22637">
        <ele>144</ele>
        <time>2013-02-26T15:53:39Z</time>
      </trkpt>
      <trkpt lat="44.1866" lon="4.2266">
        <ele>142</ele>
        <time>2013-02-26T15:53:54Z</time>
      </trkpt>
      <trkpt lat="44.1867" lon="4.22679">
        <ele>141</ele>
        <time>2013-02-26T15:54:10Z</time>
      </trkpt>
      <trkpt lat="44.1868" lon="4.22699">
        <ele>142</ele>
        <time>2013-02-26T15:54:25Z</time>
      </trkpt>
      <trkpt lat="44.18686" lon="4.22722">
        <ele>144</ele>
        <time>2013-02-26T15:54:43Z</time>
      </trkpt>
      <trkpt lat="44.18679" lon="4.22745">
        <ele>143</ele>
        <time>2013-02-26T15:55:02Z</time>
      </trkpt>
      <trkpt lat="44.18675" lon="4.22769">
        <ele>140</ele>
        <time>2013-02-26T15:55:19Z</time>
      </trkpt>
      <trkpt lat="44.18679" lon="4.22793">
        <ele>139</ele>
        <time>2013-02-26T15:55:37Z</time>
      </trkpt>
      <trkpt lat="44.18664" lon="4.22808">
        <ele>139</ele>
        <time>2013-02-26T15:55:55Z</time>
      </trkpt>
      <trkpt lat="44.18649" lon="4.22822">
        <ele>138</ele>
        <time>2013-02-26T15:56:14Z</time>
      </trkpt>
      <trkpt lat="44.18635" lon="4.22836">
        <ele>138</ele>
        <time>2013-02-26T15:56:31Z</time>
      </trkpt>
      <trkpt lat="44.18622" lon="4.22851">
        <ele>141</ele>
        <time>2013-02-26T15:56:47Z</time>
      </trkpt>
      <trkpt lat="44.18608" lon="4.22866">
        <ele>139</ele>
        <time>2013-02-26T15:57:04Z</time>
      </trkpt>
      <trkpt lat="44.18594" lon="4.2288">
        <ele>136</ele>
        <time>2013-02-26T15:57:22Z</time>
      </trkpt>
      <trkpt lat="44.18592" lon="4.22904">
        <ele>141</ele>
        <time>2013-02-26T15:57:40Z</time>
      </trkpt>
      <trkpt lat="44.18586" lon="4.22916">
        <ele>139</ele>
        <time>2013-02-26T16:00:11Z</time>
      </trkpt>
    </trkseg>
  </trk>
</gpx>